Terminal Aerodrome Forecast
Issued by NWS

Home | Current Version | Previous Version | Text Only | Print | Product List | Glossary On
Versions: 1 2 3 4 5 6 7 8 9 10 11 12 13 14 15 16 17 18
000
FTUS45 KFGZ 200500
TAFPRC
TAF
KPRC 200528Z 2006/2106 VRB06KT P6SM FEW090 SCT120
     FM201900 15006KT P6SM FEW080 SCT120
     FM210200 VRB04KT P6SM SCT120=

USA.gov is the U.S. government's official web portal to all federal, state and local government web resources and services.